Latest Weather Observations for Horsham

IDV60801

Issued at 10:02 pm EDT Saturday 13 February 2016 (issued every 30 minutes, with the page automatically refreshed every 10 minutes)

About weather observations | Map of weather stations | Latest weather observations for VIC | Other Formats
Station Details ID: 079100 Name: HORSHAM AERODROME Lat: -36.67 Lon: 142.17 Height: 133.8 m
Data from the previous 72 hours. | See also: Recent months at Horsham
Date/Time
EDT
Temp
°C
App
Temp
°C
Dew
Point
Rel
Hum
%
Delta-T
°C
Wind Press
QNH
hPa
Press
MSL
hPa
Rain
since 9 am
mm
Dir
 
Spd
km/h
Gust
km/h
Spd
kts
Gust
kts
13/10:00pm 21.9 17.1 13.0 57 5.1 SW 30 43 16 23 1011.0 1010.5 0.0
13/09:30pm 22.5 17.6 13.6 57 5.2 SW 32 43 17 23 1010.4 1009.9 0.0
13/09:00pm 23.7 18.8 13.8 53 5.8 SW 32 43 17 23 1009.8 1009.3 0.0
13/08:30pm 25.2 20.3 13.7 49 6.8 SW 32 43 17 23 1009.2 1008.7 0.0
13/08:00pm 26.7 21.4 12.4 41 8.3 WSW 32 41 17 22 1008.8 1008.3 0.0
13/07:30pm 28.0 22.5 12.0 37 9.3 WSW 32 43 17 23 1008.4 1007.9 0.0
13/07:00pm 28.6 22.5 11.6 34 9.9 WSW 35 44 19 24 1008.2 1007.7 0.0
13/06:49pm 29.5 23.9 11.5 33 10.5 W 32 52 17 28 1007.9 1007.4 0.0
13/06:30pm 29.7 24.0 11.7 33 10.5 W 33 43 18 23 1007.9 1007.4 0.0
13/06:00pm 30.6 24.7 11.1 30 11.3 WSW 33 46 18 25 1008.0 1007.5 0.0
13/05:30pm 30.8 24.8 10.7 29 11.6 W 33 48 18 26 1008.0 1007.5 0.0
13/05:00pm 31.8 26.2 8.7 24 13.0 WSW 28 46 15 25 1008.0 1007.5 0.0
13/04:57pm 31.3 25.7 8.9 25 12.6 WSW 28 46 15 25 1008.0 1007.5 0.0
13/04:30pm 31.9 25.1 6.9 21 13.6 WSW 32 41 17 22 1007.9 1007.4 0.0
13/04:00pm 31.6 24.2 6.6 21 13.6 W 35 46 19 25 1008.1 1007.6 0.0
13/03:30pm 31.5 24.5 5.8 20 13.7 W 32 50 17 27 1008.5 1008.0 0.0
13/03:00pm 31.1 24.4 5.5 20 13.6 W 30 41 16 22 1008.9 1008.4 0.0
13/02:30pm 30.1 23.0 5.4 21 13.0 W 32 44 17 24 1009.2 1008.7 0.0
13/02:00pm 28.6 23.3 6.7 25 11.7 W 24 35 13 19 1009.6 1009.1 0.0
13/01:30pm 27.3 22.7 8.2 30 10.4 W 22 33 12 18 1010.1 1009.6 0.0
13/01:00pm 26.0 20.7 8.5 33 9.5 W 26 33 14 18 1010.3 1009.8 0.0
13/12:30pm 26.0 21.7 9.4 35 9.2 W 22 30 12 16 1010.6 1010.1 0.0
13/12:00pm 25.0 21.7 10.8 41 8.0 W 19 24 10 13 1010.6 1010.1 0.0
13/11:30am 23.5 19.9 10.6 44 7.2 WSW 20 24 11 13 1010.8 1010.3 0.0
13/11:00am 24.9 21.6 10.8 41 7.9 WSW 19 28 10 15 1010.9 1010.4 0.0
13/10:30am 24.7 21.2 8.6 36 8.7 WSW 17 22 9 12 1010.9 1010.4 0.0
13/10:00am 22.9 19.8 7.4 37 8.1 W 13 20 7 11 1010.6 1010.1 0.0
13/09:30am 20.7 18.2 8.4 45 6.5 WNW 11 15 6 8 1010.9 1010.4 0.0
13/09:00am 19.6 17.7 8.9 50 5.7 WSW 9 13 5 7 1010.9 1010.4 0.0
13/08:30am 18.4 16.9 8.4 52 5.2 W 6 9 3 5 1010.7 1010.2 0.0
13/08:00am 16.0 14.1 7.5 57 4.3 WNW 7 9 4 5 1010.6 1010.1 0.0
13/07:30am 14.2 11.8 5.3 55 4.2 W 7 9 4 5 1010.6 1010.1 0.0
13/07:00am 14.8 12.2 6.1 56 4.2 W 9 13 5 7 1010.3 1009.8 0.0
13/06:30am 13.5 10.3 4.9 56 4.0 WNW 11 13 6 7 1009.9 1009.4 0.0
13/06:00am 14.2 11.4 5.0 54 4.3 WNW 9 11 5 6 1009.7 1009.2 0.0
13/05:30am 14.3 11.0 4.6 52 4.5 WNW 11 11 6 6 1009.6 1009.1 0.0
13/05:00am 14.6 11.6 4.0 49 4.9 WNW 9 11 5 6 1009.7 1009.2 0.0
13/04:30am 16.0 13.5 4.7 47 5.4 WNW 7 7 4 4 1009.6 1009.1 0.0
13/04:00am 16.7 14.2 4.7 45 5.7 W 7 7 4 4 1009.6 1009.1 0.0
13/03:30am 18.8 15.3 5.6 42 6.5 WSW 13 15 7 8 1010.0 1009.5 0.0
13/03:00am 17.7 14.9 5.0 43 6.1 W 9 11 5 6 1010.0 1009.5 0.0
13/02:30am 17.3 14.7 4.3 42 6.2 WNW 7 9 4 5 1010.1 1009.6 0.0
13/02:00am 19.7 17.5 6.1 41 6.8 WSW 7 9 4 5 1010.2 1009.7 0.0
13/01:30am 19.1 16.2 4.8 39 6.9 WNW 9 11 5 6 1010.4 1009.9 0.0
13/01:00am 20.4 17.9 4.8 36 7.7 W 7 9 4 5 1010.6 1010.1 0.0
13/12:30am 21.7 19.3 5.2 34 8.2 WSW 7 9 4 5 1010.8 1010.3 0.0
13/12:00am 22.9 19.3 4.9 31 9.0 SW 13 17 7 9 1011.1 1010.6 0.0
 
Date/Time
EDT
Temp
°C
App
Temp
°C
Dew
Point
Rel
Hum
%
Delta-T
°C
Wind Press
QNH
hPa
Press
MSL
hPa
Rain
since 9 am
mm
Dir
 
Spd
km/h
Gust
km/h
Spd
kts
Gust
kts
12/11:30pm 23.6 20.0 5.0 30 9.4 SW 13 17 7 9 1011.2 1010.7 0.0
12/11:00pm 24.5 20.1 4.8 28 9.9 WSW 17 20 9 11 1011.2 1010.7 0.0
12/10:30pm 26.0 22.4 5.0 26 10.7 WSW 13 17 7 9 1011.2 1010.7 0.0
12/10:00pm 27.4 23.3 4.5 23 11.7 W 15 19 8 10 1011.1 1010.6 0.0
12/09:30pm 27.6 23.9 4.6 23 11.8 W 13 15 7 8 1011.0 1010.5 0.0
12/09:00pm 29.2 25.4 4.0 20 12.9 W 13 17 7 9 1010.9 1010.4 0.0
12/08:30pm 29.8 26.0 3.7 19 13.3 W 13 17 7 9 1010.7 1010.2 0.0
12/08:00pm 32.0 28.3 4.7 18 14.4 W 13 22 7 12 1010.4 1009.9 0.0
12/07:30pm 32.5 28.5 5.1 18 14.6 W 15 22 8 12 1010.3 1009.8 0.0
12/07:00pm 33.0 29.3 4.7 17 15.0 W 13 26 7 14 1010.3 1009.8 0.0
12/06:30pm 32.9 27.8 2.9 15 15.4 W 19 30 10 16 1010.5 1010.0 0.0
12/06:00pm 33.2 29.2 4.9 17 15.1 W 15 24 8 13 1010.6 1010.1 0.0
12/05:30pm 33.0 28.2 4.7 17 15.0 WSW 19 28 10 15 1010.8 1010.3 0.0
12/05:00pm 33.0 28.0 4.7 17 15.0 WSW 20 32 11 17 1011.0 1010.5 0.0
12/04:30pm 33.0 29.3 4.7 17 15.0 NW 13 20 7 11 1011.2 1010.7 0.0
12/04:00pm 33.0 29.1 5.5 18 14.8 WNW 15 24 8 13 1011.5 1011.0 0.0
12/03:30pm 32.2 28.7 7.1 21 13.8 WNW 15 28 8 15 1012.0 1011.5 0.0
12/03:00pm 32.7 30.0 7.5 21 13.9 W 11 24 6 13 1012.4 1011.9 0.0
12/02:30pm 31.0 27.2 7.5 23 12.9 WNW 17 28 9 15 1013.0 1012.6 0.0
12/02:00pm 31.2 28.2 7.6 23 13.0 WSW 13 24 7 13 1013.3 1012.9 0.0
12/01:30pm 29.5 27.1 8.5 27 11.6 W 11 20 6 11 1013.7 1013.2 0.0
12/01:00pm 28.4 26.3 9.6 31 10.5 WSW 11 20 6 11 1014.2 1013.7 0.0
12/12:30pm 27.9 25.9 10.1 33 10.0 W 11 17 6 9 1014.7 1014.2 0.0
12/12:00pm 26.9 25.7 10.2 35 9.4 NW 7 11 4 6 1015.1 1014.6 0.0
12/11:30am 26.1 24.6 10.7 38 8.7 ESE 9 17 5 9 1015.2 1014.7 0.0
12/11:00am 24.7 22.8 10.6 41 7.9 NE 11 17 6 9 1015.5 1015.0 0.0
12/10:30am 23.7 21.3 11.4 46 6.9 ESE 15 22 8 12 1015.6 1015.1 0.0
12/10:00am 22.3 19.7 12.0 52 5.8 ESE 17 22 9 12 1015.8 1015.3 0.0
12/09:30am 20.8 17.5 11.7 56 5.1 ESE 20 26 11 14 1015.9 1015.4 0.0
12/09:00am 19.5 15.5 11.8 61 4.3 ESE 24 30 13 16 1015.8 1015.3 0.0
12/08:30am 18.3 15.0 11.6 65 3.7 ESE 20 30 11 16 1015.8 1015.3 0.0
12/08:00am 17.2 14.7 11.2 68 3.3 ESE 15 19 8 10 1015.9 1015.4 0.0
12/07:30am 15.9 13.4 11.1 73 2.6 SE 15 19 8 10 1015.7 1015.2 0.0
12/07:00am 15.6 11.8 11.2 75 2.4 ESE 22 30 12 16 1015.5 1015.0 0.0
12/06:30am 15.6 12.2 11.2 75 2.4 ESE 20 24 11 13 1015.2 1014.7 0.0
12/06:00am 15.8 12.0 11.2 74 2.5 ESE 22 30 12 16 1014.9 1014.4 0.0
12/05:30am 16.0 12.0 10.5 70 2.9 ESE 22 28 12 15 1014.7 1014.2 0.0
12/05:00am 16.3 11.5 10.4 68 3.1 ESE 26 33 14 18 1014.5 1014.0 0.0
12/04:30am 16.6 12.2 10.5 67 3.3 ESE 24 32 13 17 1014.6 1014.1 0.0
12/04:00am 16.9 12.5 10.3 65 3.5 ESE 24 33 13 18 1014.5 1014.0 0.0
12/03:30am 17.3 13.1 11.1 67 3.4 ESE 24 30 13 16 1014.8 1014.3 0.0
12/03:00am 17.6 14.4 11.2 66 3.5 ESE 19 24 10 13 1015.1 1014.6 0.0
12/02:30am 18.0 14.5 10.9 63 3.9 SE 20 26 11 14 1015.3 1014.8 0.0
12/02:00am 18.4 15.0 11.2 63 3.9 ESE 20 28 11 15 1015.5 1015.0 0.0
12/01:30am 19.0 14.9 11.6 62 4.1 ESE 24 32 13 17 1015.5 1015.0 0.0
12/01:00am 19.5 15.8 11.5 60 4.4 ESE 22 32 12 17 1015.4 1014.9 0.0
12/12:30am 19.2 17.1 11.0 59 4.5 SSE 13 17 7 9 1015.7 1015.2 0.0
12/12:00am 19.6 16.2 11.1 58 4.7 SSE 20 24 11 13 1015.7 1015.2 0.0
 
Date/Time
EDT
Temp
°C
App
Temp
°C
Dew
Point
Rel
Hum
%
Delta-T
°C
Wind Press
QNH
hPa
Press
MSL
hPa
Rain
since 9 am
mm
Dir
 
Spd
km/h
Gust
km/h
Spd
kts
Gust
kts
11/11:30pm 20.3 16.5 11.2 56 5.0 SSE 22 28 12 15 1015.8 1015.3 0.0
11/11:00pm 21.2 17.4 11.2 53 5.5 SSE 22 28 12 15 1015.9 1015.4 0.0
11/10:30pm 22.1 18.1 11.8 52 5.8 SSE 24 30 13 16 1015.6 1015.1 0.0
11/10:00pm 22.9 19.3 11.9 50 6.2 S 22 32 12 17 1015.2 1014.7 0.0
11/09:30pm 23.9 19.2 11.9 47 6.8 S 28 35 15 19 1014.8 1014.3 0.0
11/09:00pm 25.7 20.0 11.8 42 8.0 S 33 43 18 23 1014.3 1013.8 0.0
11/08:30pm 27.7 23.2 8.6 30 10.5 S 22 28 12 15 1013.7 1013.2 0.0
11/08:00pm 28.9 23.5 8.0 27 11.4 S 26 32 14 17 1013.3 1012.9 0.0
11/07:30pm 29.8 24.7 7.7 25 12.1 S 24 32 13 17 1012.8 1012.4 0.0
11/07:00pm 30.1 24.3 7.9 25 12.2 SSW 28 35 15 19 1012.7 1012.2 0.0
11/06:30pm 31.2 25.3 7.6 23 13.0 SSW 28 37 15 20 1012.5 1012.0 0.0
11/06:00pm 31.5 26.5 7.9 23 13.1 SSW 24 35 13 19 1012.5 1012.0 0.0
11/05:30pm 31.5 26.5 7.9 23 13.1 SSW 24 39 13 21 1012.6 1012.1 0.0
11/05:00pm 31.6 27.3 8.0 23 13.1 SW 20 30 11 16 1012.6 1012.1 0.0
11/04:30pm 31.6 27.9 8.0 23 13.1 SSW 17 28 9 15 1012.8 1012.4 0.0
11/04:00pm 31.0 26.9 8.7 25 12.5 SSW 20 28 11 15 1013.1 1012.7 0.0
11/03:30pm 30.7 27.3 9.0 26 12.2 SW 17 33 9 18 1013.7 1013.2 0.0
11/03:00pm 30.3 26.5 9.2 27 11.9 SW 19 28 10 15 1014.0 1013.5 0.0
11/02:30pm 28.9 26.4 9.6 30 10.8 S 13 22 7 12 1014.3 1013.8 0.0
11/02:00pm 28.3 25.9 10.0 32 10.3 SSW 13 24 7 13 1014.7 1014.2 0.0
11/01:30pm 27.6 25.4 9.4 32 10.1 SSW 11 19 6 10 1015.0 1014.5 0.0
11/01:00pm 26.8 24.7 9.6 34 9.6 S 11 17 6 9 1015.4 1014.9 0.0
11/12:30pm 25.1 23.6 10.6 40 8.1 SW 9 19 5 10 1015.8 1015.3 0.0
11/12:00pm 24.1 22.6 10.4 42 7.6 SSE 9 15 5 8 1016.0 1015.5 0.0
11/11:30am 22.9 21.9 11.0 47 6.6 WNW 7 13 4 7 1016.3 1015.8 0.0
11/11:00am 22.6 21.7 10.7 47 6.6 W 6 9 3 5 1016.5 1016.0 0.0
11/10:30am 20.6 19.5 10.7 53 5.4 SSW 7 13 4 7 1016.7 1016.2 0.0
11/10:00am 19.3 18.1 10.3 56 4.9 SSW 7 15 4 8 1016.9 1016.4 0.0
11/09:30am 18.6 17.7 11.2 62 4.1 SW 7 11 4 6 1016.7 1016.2 0.0
11/09:00am 17.4 16.5 11.2 67 3.4 SSW 7 13 4 7 1016.7 1016.2 0.0
11/08:30am 17.0 16.1 11.5 70 3.0 SSE 7 11 4 6 1016.2 1015.7 0.0
11/08:00am 15.2 14.7 10.8 75 2.3 SSW 4 6 2 3 1015.9 1015.4 0.0
11/07:30am 14.2 13.3 10.8 80 1.8 S 6 7 3 4 1015.7 1015.2 0.0
11/07:00am 13.6 12.6 10.2 80 1.8 SSW 6 9 3 5 1015.3 1014.8 0.0
11/06:30am 13.9 12.3 10.3 79 1.9 SSW 9 11 5 6 1015.0 1014.5 0.0
11/06:00am 13.9 11.8 9.9 77 2.1 SSW 11 13 6 7 1014.8 1014.3 0.0
11/05:30am 14.5 12.9 10.3 76 2.2 SSW 9 11 5 6 1014.4 1013.9 0.0
11/05:00am 13.4 11.9 9.3 76 2.1 SSE 7 9 4 5 1014.2 1013.7 0.0
11/04:30am 14.0 12.3 9.8 76 2.2 SSE 9 11 5 6 1014.3 1013.8 0.0
11/04:00am 14.9 12.2 10.5 75 2.3 SE 15 17 8 9 1014.2 1013.7 0.0
11/03:30am 14.9 12.6 10.5 75 2.3 ESE 13 15 7 8 1014.3 1013.8 0.0
11/03:00am 15.6 13.0 10.6 72 2.7 SE 15 17 8 9 1014.5 1014.0 0.0
11/02:30am 16.1 13.5 10.6 70 2.9 ESE 15 19 8 10 1014.6 1014.1 0.0
11/02:00am 15.9 13.7 9.3 65 3.4 SE 11 15 6 8 1014.7 1014.2 0.0
11/01:30am 17.7 14.5 10.1 61 4.1 ESE 17 20 9 11 1014.9 1014.4 0.0
11/01:00am 18.7 15.8 9.5 55 4.9 SE 15 20 8 11 1014.9 1014.4 0.0
11/12:30am 19.6 15.3 9.5 52 5.4 S 22 26 12 14 1014.7 1014.2 0.0
11/12:00am 20.0 16.2 9.0 49 5.8 SSE 19 20 10 11 1014.8 1014.3 0.0
 
Date/Time
EDT
Temp
°C
App
Temp
°C
Dew
Point
Rel
Hum
%
Delta-T
°C
Wind Press
QNH
hPa
Press
MSL
hPa
Rain
since 9 am
mm
Dir
 
Spd
km/h
Gust
km/h
Spd
kts
Gust
kts
10/11:30pm 21.1 17.6 8.7 45 6.6 SSE 17 22 9 12 1014.9 1014.4 0.0
10/11:00pm 22.2 18.0 8.3 41 7.4 SSE 20 22 11 12 1014.8 1014.3 0.0
10/10:30pm 23.3 19.3 8.2 38 8.0 SSE 19 20 10 11 1014.8 1014.3 0.0

Other Formats:

Comma delimited format used in spreadsheet applications
http://www.bom.gov.au/fwo/IDV60801/IDV60801.95839.axf

JavaScript Object Notation format (JSON) in row-major order
http://www.bom.gov.au/fwo/IDV60801/IDV60801.95839.json